Blawenburg, New Jersey
Current Conditions -  °F | °C
As of 4:53 AM on Monday 26 Jan 2015 (Local Time) from KTTN Reporting Station
Light Snow Light Snow  
Wind Chill: 14°   Ceiling: 2800
Heat Index: 25°   Visibility: 5mi
Dew Point: 19°   Wind: 13mph
Humidity: 78%   Direction: 60°ENE
Pressure: 29.95"   Gusts: NA
Location:  40.41°N, 74.7°W
Report Text: KTTN 260953Z AUTO 06011KT 5SM -SN OVC028 M04/M07 A2995 RMK AO2 SLP138 P0000 T10391072
Loading
Personal Weather Stations






























Interactive Weather Map New forecast layout! Learn more

10-Day Weather Forecast

Advertisements
Track Severe Weather on mobile